createdAt,value
2018-10-17T00:01:41.578Z,98983.80
2018-10-17T00:04:09.786Z,98983.80
2018-10-17T00:06:37.933Z,98989.63
2018-10-17T00:09:08.267Z,98988.58
2018-10-17T00:11:36.602Z,98986.42
2018-10-17T00:14:04.899Z,98980.45
2018-10-17T00:16:33.349Z,98985.63
2018-10-17T00:19:01.633Z,98978.23
2018-10-17T00:21:29.894Z,98978.45
2018-10-17T00:23:58.066Z,98982.38
2018-10-17T00:26:26.207Z,98984.27
2018-10-17T00:28:54.398Z,98983.55
2018-10-17T00:31:22.594Z,98986.07
2018-10-17T00:33:50.758Z,98982.84
2018-10-17T00:36:18.903Z,98979.95
2018-10-17T00:38:47.093Z,98973.94
2018-10-17T00:41:15.319Z,98978.25
2018-10-17T00:43:43.448Z,98980.50
2018-10-17T00:46:11.631Z,98972.60
2018-10-17T00:48:39.774Z,98971.87
2018-10-17T00:51:08.080Z,98969.25
2018-10-17T00:53:36.240Z,98971.14
2018-10-17T00:56:04.491Z,98976.27
2018-10-17T00:58:32.631Z,98968.38
2018-10-17T01:01:00.821Z,98970.25
2018-10-17T01:03:28.883Z,98965.27
2018-10-17T01:05:57.247Z,98969.17
2018-10-17T01:08:25.525Z,98971.77
2018-10-17T01:10:53.982Z,98966.84
2018-10-17T01:13:22.144Z,98964.09
2018-10-17T01:15:50.267Z,98962.44
2018-10-17T01:18:18.428Z,98967.33
2018-10-17T01:20:46.576Z,98966.77
2018-10-17T01:23:14.743Z,98963.59
2018-10-17T01:25:42.867Z,98963.14
2018-10-17T01:28:11.402Z,98953.14
2018-10-17T01:30:39.564Z,98956.17
2018-10-17T01:33:07.851Z,98951.24
2018-10-17T01:35:36.032Z,98952.09
2018-10-17T01:38:04.191Z,98951.59
2018-10-17T01:40:32.573Z,98951.39
2018-10-17T01:43:00.722Z,98947.48
2018-10-17T01:45:28.862Z,98949.55
2018-10-17T01:47:56.988Z,98941.91
2018-10-17T01:50:25.621Z,98945.61
2018-10-17T01:52:53.951Z,98940.19
2018-10-17T01:55:22.191Z,98944.36
2018-10-17T01:57:50.664Z,98939.00
2018-10-17T02:00:18.843Z,98940.27
2018-10-17T02:02:46.983Z,98942.16
2018-10-17T02:05:15.261Z,98937.41
2018-10-17T02:07:43.484Z,98930.05
2018-10-17T02:10:11.655Z,98937.30
2018-10-17T02:12:40.006Z,98937.14
2018-10-17T02:15:08.200Z,98934.41
2018-10-17T02:17:36.384Z,98939.95
2018-10-17T02:20:04.743Z,98940.60
2018-10-17T02:22:32.915Z,98935.41
2018-10-17T02:25:01.143Z,98934.98
2018-10-17T02:27:29.275Z,98932.41
2018-10-17T02:29:57.524Z,98934.72
2018-10-17T02:32:32.320Z,98933.11
2018-10-17T02:35:05.844Z,98932.34
2018-10-17T02:37:34.060Z,98930.17
2018-10-17T02:40:02.316Z,98931.95
2018-10-17T02:42:30.616Z,98930.28
2018-10-17T02:44:58.869Z,98928.97
2018-10-17T02:47:27.013Z,98931.33
2018-10-17T02:49:55.311Z,98921.81
2018-10-17T02:52:23.630Z,98922.04
2018-10-17T02:54:51.871Z,98926.59
2018-10-17T02:57:20.600Z,98932.05
2018-10-17T02:59:48.796Z,98929.32
2018-10-17T03:02:16.947Z,98934.02
2018-10-17T03:04:45.155Z,98932.13
2018-10-17T03:07:13.367Z,98935.83
2018-10-17T03:09:41.532Z,98937.19
2018-10-17T03:12:09.812Z,98932.22
2018-10-17T03:14:37.961Z,98936.06
2018-10-17T03:17:06.298Z,98939.61
2018-10-17T03:19:34.376Z,98944.66
2018-10-17T03:22:02.640Z,98940.84
2018-10-17T03:24:30.787Z,98945.01
2018-10-17T03:26:58.964Z,98939.72
2018-10-17T03:29:27.114Z,98944.73
2018-10-17T03:31:55.274Z,98949.02
2018-10-17T03:34:23.530Z,98945.16
2018-10-17T03:36:52.143Z,98948.34
2018-10-17T03:39:20.264Z,98947.83
2018-10-17T03:41:48.516Z,98952.96
2018-10-17T03:44:16.727Z,98947.09
2018-10-17T03:46:44.949Z,98940.48
2018-10-17T03:49:13.177Z,98938.17
2018-10-17T03:51:41.263Z,98943.92
2018-10-17T03:54:09.422Z,98938.06
2018-10-17T03:56:37.731Z,98950.30
2018-10-17T03:59:06.289Z,98942.11
2018-10-17T04:01:34.520Z,98941.87
2018-10-17T04:04:02.784Z,98947.81
2018-10-17T04:06:31.047Z,98947.39
2018-10-17T04:08:59.224Z,98947.34
2018-10-17T04:11:27.493Z,98950.34
2018-10-17T04:13:55.837Z,98948.23
2018-10-17T04:16:24.000Z,98940.98
2018-10-17T04:18:52.627Z,98949.13
2018-10-17T04:21:20.770Z,98944.16
2018-10-17T04:23:48.965Z,98946.04
2018-10-17T04:26:17.175Z,98944.27
2018-10-17T04:28:45.299Z,98949.90
2018-10-17T04:31:13.556Z,98945.52
2018-10-17T04:33:41.709Z,98947.77
2018-10-17T04:36:10.054Z,98955.12
2018-10-17T04:38:38.211Z,98950.75
2018-10-17T04:41:06.711Z,98951.59
2018-10-17T04:43:34.872Z,98953.58
2018-10-17T04:46:03.172Z,98953.13
2018-10-17T04:48:31.396Z,98957.89
2018-10-17T04:50:59.664Z,98960.97
2018-10-17T04:53:27.807Z,98962.73
2018-10-17T04:55:56.114Z,98958.17
2018-10-17T04:58:24.408Z,98963.54
2018-10-17T05:00:52.558Z,98961.20
2018-10-17T05:03:20.696Z,98959.72
2018-10-17T05:05:48.843Z,98956.15
2018-10-17T05:08:16.978Z,98960.61
2018-10-17T05:10:45.103Z,98961.47
2018-10-17T05:13:13.318Z,98956.52
2018-10-17T05:15:41.580Z,98963.23
2018-10-17T05:18:09.828Z,98961.64
2018-10-17T05:20:38.081Z,98957.84
2018-10-17T05:23:06.358Z,98961.61
2018-10-17T05:25:34.456Z,98959.17
2018-10-17T05:28:02.732Z,98966.94
2018-10-17T05:30:30.959Z,98969.21
2018-10-17T05:32:59.176Z,98964.16
2018-10-17T05:35:27.541Z,98968.54
2018-10-17T05:37:55.705Z,98970.84
2018-10-17T05:40:23.876Z,98970.73
2018-10-17T05:42:52.109Z,98974.91
2018-10-17T05:45:20.341Z,98970.09
2018-10-17T05:47:48.750Z,98976.92
2018-10-17T05:50:16.936Z,98977.63
2018-10-17T05:52:45.075Z,98979.57
2018-10-17T05:55:13.343Z,98979.19
2018-10-17T05:57:41.642Z,98978.48
2018-10-17T06:00:09.835Z,98977.77
2018-10-17T06:02:38.773Z,98983.70
2018-10-17T06:05:08.050Z,98984.27
2018-10-17T06:07:36.192Z,98980.88
2018-10-17T06:10:04.582Z,98985.16
2018-10-17T06:12:32.764Z,98990.57
2018-10-17T06:15:00.884Z,98991.03
2018-10-17T06:17:29.098Z,98994.03
2018-10-17T06:19:57.176Z,98992.92
2018-10-17T06:22:25.387Z,98993.03
2018-10-17T06:24:53.587Z,98996.53
2018-10-17T06:27:22.764Z,98994.48
2018-10-17T06:29:50.883Z,98992.15
2018-10-17T06:32:19.160Z,98990.23
2018-10-17T06:34:47.424Z,98995.09
2018-10-17T06:37:15.573Z,98992.60
2018-10-17T06:39:43.691Z,98987.17
2018-10-17T06:42:11.971Z,98997.19
2018-10-17T06:44:40.119Z,98987.80
2018-10-17T06:47:08.534Z,98988.22
2018-10-17T06:49:36.659Z,98985.98
2018-10-17T06:52:04.966Z,98990.30
2018-10-17T06:54:33.705Z,98992.59
2018-10-17T06:57:01.747Z,98989.73
2018-10-17T06:59:29.916Z,98988.99
2018-10-17T07:01:58.473Z,98993.33
2018-10-17T07:04:26.558Z,98997.63
2018-10-17T07:06:54.772Z,98993.34
2018-10-17T07:09:22.936Z,98990.33
2018-10-17T07:11:51.082Z,98991.88
2018-10-17T07:14:19.512Z,98993.32
2018-10-17T07:16:47.824Z,98986.03
2018-10-17T07:19:16.308Z,98989.06
2018-10-17T07:21:44.404Z,98981.08
2018-10-17T07:24:12.588Z,98980.13
2018-10-17T07:26:40.776Z,98984.40
2018-10-17T07:29:08.965Z,98982.10
2018-10-17T07:31:37.116Z,98985.89
2018-10-17T07:34:05.284Z,98987.68
2018-10-17T07:36:33.574Z,98981.31
2018-10-17T07:39:01.812Z,98982.18
2018-10-17T07:41:30.717Z,98987.00
2018-10-17T07:43:58.918Z,98985.16
2018-10-17T07:46:28.160Z,98982.17
2018-10-17T07:48:56.412Z,98981.83
2018-10-17T07:51:24.674Z,98981.23
2018-10-17T07:53:53.002Z,98981.44
2018-10-17T07:56:21.168Z,98987.66
2018-10-17T07:58:49.355Z,98988.12
2018-10-17T08:01:17.504Z,98979.48
2018-10-17T08:03:45.723Z,98986.87
2018-10-17T08:06:14.084Z,98980.47
2018-10-17T08:08:42.203Z,98979.80
2018-10-17T08:11:10.507Z,98983.45
2018-10-17T08:13:38.967Z,98982.30
2018-10-17T08:16:07.182Z,98980.11
2018-10-17T08:18:35.321Z,98977.41
2018-10-17T08:21:03.644Z,98971.82
2018-10-17T08:23:31.908Z,98972.64
2018-10-17T08:26:00.057Z,98967.52
2018-10-17T08:28:28.228Z,98967.00
2018-10-17T08:30:56.451Z,98966.34
2018-10-17T08:33:24.811Z,98964.86
2018-10-17T08:35:53.379Z,98964.91
2018-10-17T08:38:21.474Z,98962.96
2018-10-17T08:40:49.760Z,98969.01
2018-10-17T08:43:17.883Z,98969.17
2018-10-17T08:45:46.328Z,98966.31
2018-10-17T08:48:14.519Z,98966.72
2018-10-17T08:50:49.347Z,98968.81
2018-10-17T08:53:17.543Z,98968.18
2018-10-17T08:55:45.690Z,98967.73
2018-10-17T08:58:13.832Z,98968.03
2018-10-17T09:00:42.057Z,98963.70
2018-10-17T09:03:10.199Z,98965.04
2018-10-17T09:05:38.798Z,98966.66
2018-10-17T09:08:07.282Z,98965.55
2018-10-17T09:10:35.352Z,98965.52
2018-10-17T09:13:03.495Z,98964.47
2018-10-17T09:15:31.787Z,98964.03
2018-10-17T09:17:59.896Z,98962.50
2018-10-17T09:20:28.227Z,98967.55
2018-10-17T09:22:56.289Z,98966.97
2018-10-17T09:25:24.638Z,98969.07
2018-10-17T09:27:52.801Z,98967.28
2018-10-17T09:30:21.169Z,98961.73
2018-10-17T09:32:49.451Z,98956.52
2018-10-17T09:35:17.687Z,98954.75
2018-10-17T09:37:45.904Z,98951.91
2018-10-17T09:40:14.322Z,98951.52
2018-10-17T09:42:42.452Z,98957.15
2018-10-17T09:45:11.350Z,98951.95
2018-10-17T09:47:39.834Z,98947.19
2018-10-17T09:50:09.154Z,98951.42
2018-10-17T09:52:37.480Z,98941.37
2018-10-17T09:55:06.374Z,98949.45
2018-10-17T09:57:34.780Z,98943.03
2018-10-17T10:00:03.283Z,98943.00
2018-10-17T10:02:31.408Z,98943.23
2018-10-17T10:04:59.627Z,98936.94
2018-10-17T10:07:27.875Z,98945.62
2018-10-17T10:09:56.103Z,98938.30
2018-10-17T10:12:24.212Z,98938.52
2018-10-17T10:14:52.503Z,98933.91
2018-10-17T10:17:21.113Z,98935.39
2018-10-17T10:19:49.319Z,98934.91
2018-10-17T10:22:17.494Z,98927.64
2018-10-17T10:24:45.679Z,98922.16
2018-10-17T10:27:13.823Z,98925.30
2018-10-17T10:29:42.300Z,98921.14
2018-10-17T10:32:10.580Z,98917.16
2018-10-17T10:34:38.970Z,98908.66
2018-10-17T10:37:07.515Z,98905.33
2018-10-17T10:39:36.105Z,98913.28
2018-10-17T10:42:04.596Z,98911.59
2018-10-17T10:44:33.420Z,98904.25
2018-10-17T10:47:01.873Z,98899.55
2018-10-17T10:49:30.086Z,98898.88
2018-10-17T10:51:58.296Z,98902.16
2018-10-17T10:54:26.605Z,98898.51
2018-10-17T10:56:54.885Z,98896.91
2018-10-17T10:59:23.225Z,98893.47
2018-10-17T11:01:51.377Z,98898.51
2018-10-17T11:04:19.555Z,98891.03
2018-10-17T11:06:47.785Z,98890.59
2018-10-17T11:09:16.178Z,98889.96
2018-10-17T11:11:44.368Z,98885.02
2018-10-17T11:14:12.878Z,98881.19
2018-10-17T11:16:40.837Z,98881.80
2018-10-17T11:19:09.097Z,98873.23
2018-10-17T11:21:37.456Z,98876.37
2018-10-17T11:24:06.116Z,98868.33
2018-10-17T11:26:34.463Z,98868.32
2018-10-17T11:29:02.907Z,98859.50
2018-10-17T11:31:31.406Z,98855.06
2018-10-17T11:33:59.769Z,98856.27
2018-10-17T11:36:28.267Z,98854.31
2018-10-17T11:38:56.678Z,98849.70
2018-10-17T11:41:25.128Z,98852.64
2018-10-17T11:43:53.543Z,98852.66
2018-10-17T11:46:21.936Z,98841.15
2018-10-17T11:48:50.420Z,98839.48
2018-10-17T11:51:18.938Z,98840.33
2018-10-17T11:53:47.293Z,98842.45
2018-10-17T11:56:15.681Z,98836.34
2018-10-17T11:58:44.006Z,98835.03
2018-10-17T12:01:12.569Z,98827.32
2018-10-17T12:03:41.263Z,98829.88
2018-10-17T12:06:09.580Z,98827.56
2018-10-17T12:08:37.848Z,98825.28
2018-10-17T12:11:06.301Z,98822.56
2018-10-17T12:13:34.726Z,98817.56
2018-10-17T12:16:03.165Z,98817.05
2018-10-17T12:18:31.596Z,98810.75
2018-10-17T12:21:00.120Z,98807.25
2018-10-17T12:23:28.466Z,98806.97
2018-10-17T12:25:56.888Z,98802.11
2018-10-17T12:28:25.124Z,98806.13
2018-10-17T12:30:53.397Z,98799.06
2018-10-17T12:33:21.552Z,98796.59
2018-10-17T12:35:49.860Z,98790.93
2018-10-17T12:38:18.332Z,98788.75
2018-10-17T12:40:46.930Z,98795.41
2018-10-17T12:43:15.127Z,98783.83
2018-10-17T12:45:43.637Z,98784.80
2018-10-17T12:48:12.043Z,98778.81
2018-10-17T12:50:40.357Z,98775.44
2018-10-17T12:53:08.930Z,98779.98
2018-10-17T12:55:37.154Z,98772.96
2018-10-17T12:58:05.894Z,98774.58
2018-10-17T13:00:34.294Z,98773.03
2018-10-17T13:03:02.730Z,98773.59
2018-10-17T13:05:31.204Z,98767.77
2018-10-17T13:07:59.536Z,98773.14
2018-10-17T13:10:27.919Z,98772.80
2018-10-17T13:12:56.164Z,98773.57
2018-10-17T13:15:24.590Z,98774.20
2018-10-17T13:17:52.985Z,98771.27
2018-10-17T13:20:21.378Z,98768.45
2018-10-17T13:22:49.803Z,98764.02
2018-10-17T13:25:18.370Z,98757.64
2018-10-17T13:27:46.753Z,98757.37
2018-10-17T13:30:15.050Z,98755.87
2018-10-17T13:32:43.263Z,98755.81
2018-10-17T13:35:11.812Z,98750.45
2018-10-17T13:37:40.220Z,98751.17
2018-10-17T13:40:08.648Z,98752.09
2018-10-17T13:42:36.972Z,98748.40
2018-10-17T13:45:06.257Z,98755.48
2018-10-17T13:47:35.253Z,98752.01
2018-10-17T13:50:03.764Z,98749.61
2018-10-17T13:52:32.073Z,98754.75
2018-10-17T13:55:00.439Z,98748.72
2018-10-17T13:57:28.845Z,98750.77
2018-10-17T13:59:57.463Z,98749.35
2018-10-17T14:02:25.880Z,98747.28
2018-10-17T14:04:54.685Z,98755.12
2018-10-17T14:07:22.946Z,98755.89
2018-10-17T14:09:51.389Z,98753.59
2018-10-17T14:12:19.913Z,98756.34
2018-10-17T14:14:48.246Z,98751.22
2018-10-17T14:17:16.712Z,98753.94
2018-10-17T14:19:45.084Z,98753.20
2018-10-17T14:22:13.461Z,98751.03
2018-10-17T14:24:41.915Z,98749.27
2018-10-17T14:27:10.382Z,98755.12
2018-10-17T14:29:38.846Z,98748.83
2018-10-17T14:32:07.236Z,98751.51
2018-10-17T14:34:36.312Z,98749.30
2018-10-17T14:37:04.986Z,98743.52
2018-10-17T14:39:33.859Z,98749.63
2018-10-17T14:42:02.263Z,98738.89
2018-10-17T14:44:30.519Z,98737.38
2018-10-17T14:46:58.918Z,98738.45
2018-10-17T14:49:27.248Z,98741.33
2018-10-17T14:51:55.431Z,98739.91
2018-10-17T14:54:23.802Z,98738.20
2018-10-17T14:56:52.316Z,98738.70
2018-10-17T14:59:21.379Z,98740.86
2018-10-17T15:01:49.624Z,98738.11
2018-10-17T15:04:17.863Z,98744.24
2018-10-17T15:06:46.157Z,98735.44
2018-10-17T15:09:14.989Z,98735.30
2018-10-17T15:11:43.350Z,98740.65
2018-10-17T15:14:11.592Z,98736.14
2018-10-17T15:16:39.964Z,98741.88
2018-10-17T15:19:08.187Z,98742.19
2018-10-17T15:21:36.647Z,98744.66
2018-10-17T15:24:05.421Z,98750.50
2018-10-17T15:26:33.745Z,98752.03
2018-10-17T15:29:02.047Z,98748.33
2018-10-17T15:31:30.369Z,98746.59
2018-10-17T15:33:58.761Z,98751.53
2018-10-17T15:36:27.234Z,98747.62
2018-10-17T15:38:55.600Z,98739.20
2018-10-17T15:41:23.829Z,98745.23
2018-10-17T15:43:52.281Z,98743.37
2018-10-17T15:46:20.652Z,98744.59
2018-10-17T15:48:49.112Z,98743.84
2018-10-17T15:51:17.618Z,98744.22
2018-10-17T15:53:46.916Z,98746.52
2018-10-17T15:56:15.302Z,98748.61
2018-10-17T15:58:43.665Z,98748.96
2018-10-17T16:01:12.050Z,98746.06
2018-10-17T16:03:40.451Z,98755.33
2018-10-17T16:06:08.830Z,98744.14
2018-10-17T16:08:37.180Z,98749.39
2018-10-17T16:11:05.827Z,98748.27
2018-10-17T16:13:34.325Z,98743.41
2018-10-17T16:16:02.680Z,98747.00
2018-10-17T16:18:31.072Z,98750.14
2018-10-17T16:20:59.776Z,98748.04
2018-10-17T16:23:28.164Z,98750.25
2018-10-17T16:25:56.553Z,98749.70
2018-10-17T16:28:24.966Z,98745.58
2018-10-17T16:30:53.463Z,98757.59
2018-10-17T16:33:21.864Z,98754.83
2018-10-17T16:35:50.229Z,98760.83
2018-10-17T16:38:18.523Z,98764.03
2018-10-17T16:40:46.688Z,98764.53
2018-10-17T16:43:14.985Z,98765.89
2018-10-17T16:45:43.339Z,98769.88
2018-10-17T16:48:11.645Z,98773.70
2018-10-17T16:50:40.259Z,98774.53
2018-10-17T16:53:08.334Z,98772.55
2018-10-17T16:55:36.720Z,98778.39
2018-10-17T16:58:05.076Z,98785.23
2018-10-17T17:00:33.476Z,98789.91
2018-10-17T17:03:01.853Z,98791.41
2018-10-17T17:05:30.207Z,98795.27
2018-10-17T17:07:58.600Z,98799.93
2018-10-17T17:10:27.054Z,98798.43
2018-10-17T17:12:55.395Z,98803.75
2018-10-17T17:15:23.562Z,98796.61
2018-10-17T17:17:51.939Z,98797.59
2018-10-17T17:20:20.531Z,98793.59
2018-10-17T17:22:49.071Z,98804.58
2018-10-17T17:25:17.320Z,98808.39
2018-10-17T17:27:45.769Z,98812.41
2018-10-17T17:30:19.224Z,98816.22
2018-10-17T17:32:48.192Z,98812.20
2018-10-17T17:35:16.529Z,98818.16
2018-10-17T17:37:44.825Z,98820.97
2018-10-17T17:40:14.169Z,98818.59
2018-10-17T17:42:42.484Z,98822.20
2018-10-17T17:45:11.144Z,98826.24
2018-10-17T17:47:39.766Z,98823.03
2018-10-17T17:50:08.459Z,98831.18
2018-10-17T17:52:36.793Z,98825.70
2018-10-17T17:55:05.508Z,98829.78
2018-10-17T17:57:33.700Z,98826.45
2018-10-17T18:00:01.970Z,98829.66
2018-10-17T18:02:30.157Z,98826.74
2018-10-17T18:04:58.556Z,98830.18
2018-10-17T18:07:26.699Z,98832.34
2018-10-17T18:09:54.932Z,98836.45
2018-10-17T18:12:23.208Z,98837.84
2018-10-17T18:14:51.476Z,98839.02
2018-10-17T18:17:19.958Z,98839.17
2018-10-17T18:19:48.496Z,98842.88
2018-10-17T18:22:16.714Z,98842.65
2018-10-17T18:24:44.979Z,98851.20
2018-10-17T18:27:13.358Z,98848.60
2018-10-17T18:29:41.516Z,98852.84
2018-10-17T18:32:09.975Z,98855.29
2018-10-17T18:34:38.410Z,98855.84
2018-10-17T18:37:07.103Z,98863.42
2018-10-17T18:39:35.616Z,98860.81
2018-10-17T18:42:04.022Z,98859.22
2018-10-17T18:44:32.440Z,98858.84
2018-10-17T18:47:00.837Z,98860.88
2018-10-17T18:49:29.287Z,98867.44
2018-10-17T18:51:57.536Z,98863.48
2018-10-17T18:54:25.735Z,98869.57
2018-10-17T18:56:54.371Z,98876.51
2018-10-17T18:59:22.849Z,98879.70
2018-10-17T19:01:51.035Z,98882.28
2018-10-17T19:04:19.209Z,98887.17
2018-10-17T19:06:47.336Z,98886.95
2018-10-17T19:09:15.663Z,98888.67
2018-10-17T19:11:43.788Z,98888.41
2018-10-17T19:14:12.058Z,98893.63
2018-10-17T19:16:40.207Z,98893.36
2018-10-17T19:19:08.640Z,98899.44
2018-10-17T19:21:36.964Z,98898.72
2018-10-17T19:24:05.375Z,98903.68
2018-10-17T19:26:33.592Z,98903.98
2018-10-17T19:29:01.819Z,98903.47
2018-10-17T19:31:30.007Z,98902.73
2018-10-17T19:33:58.173Z,98906.25
2018-10-17T19:36:26.477Z,98903.02
2018-10-17T19:38:54.822Z,98910.63
2018-10-17T19:41:23.012Z,98916.92
2018-10-17T19:43:51.264Z,98912.55
2018-10-17T19:46:19.483Z,98916.70
2018-10-17T19:48:47.804Z,98910.09
2018-10-17T19:51:16.330Z,98912.19
2018-10-17T19:53:44.641Z,98918.94
2018-10-17T19:56:13.119Z,98918.87
2018-10-17T19:58:41.516Z,98921.73
2018-10-17T20:01:09.672Z,98919.09
2018-10-17T20:03:37.815Z,98919.38
2018-10-17T20:06:06.219Z,98919.56
2018-10-17T20:08:34.503Z,98922.98
2018-10-17T20:11:02.624Z,98925.91
2018-10-17T20:13:30.763Z,98920.53
2018-10-17T20:15:59.064Z,98929.94
2018-10-17T20:18:27.776Z,98928.82
2018-10-17T20:20:56.014Z,98928.82
2018-10-17T20:23:24.135Z,98932.70
2018-10-17T20:25:52.271Z,98926.01
2018-10-17T20:28:20.827Z,98930.47
2018-10-17T20:30:49.131Z,98922.36
2018-10-17T20:33:17.370Z,98928.84
2018-10-17T20:35:45.420Z,98934.22
2018-10-17T20:38:13.671Z,98926.35
2018-10-17T20:40:42.080Z,98933.56
2018-10-17T20:43:10.325Z,98934.27
2018-10-17T20:45:38.458Z,98940.03
2018-10-17T20:48:07.028Z,98943.56
2018-10-17T20:50:35.301Z,98941.31
2018-10-17T20:53:03.572Z,98944.23
2018-10-17T20:55:31.791Z,98937.82
2018-10-17T20:58:00.054Z,98952.25
2018-10-17T21:00:29.070Z,98945.51
2018-10-17T21:02:57.364Z,98944.62
2018-10-17T21:05:25.672Z,98943.14
2018-10-17T21:07:53.909Z,98943.14
2018-10-17T21:10:22.151Z,98950.13
2018-10-17T21:12:50.295Z,98949.37
2018-10-17T21:15:18.543Z,98949.23
2018-10-17T21:17:46.892Z,98949.84
2018-10-17T21:20:15.081Z,98950.97
2018-10-17T21:22:43.173Z,98945.88
2018-10-17T21:25:11.593Z,98939.76
2018-10-17T21:27:40.098Z,98941.73
2018-10-17T21:30:09.264Z,98947.38
2018-10-17T21:32:37.555Z,98948.50
2018-10-17T21:35:06.274Z,98942.45
2018-10-17T21:37:34.488Z,98950.67
2018-10-17T21:40:02.706Z,98942.94
2018-10-17T21:42:30.841Z,98937.66
2018-10-17T21:44:59.908Z,98939.22
2018-10-17T21:47:28.296Z,98930.12
2018-10-17T21:49:56.603Z,98931.14
2018-10-17T21:52:24.787Z,98935.09
2018-10-17T21:54:53.210Z,98932.66
2018-10-17T21:57:21.344Z,98932.19
2018-10-17T22:02:36.912Z,98936.70
2018-10-17T22:05:06.605Z,98933.93
2018-10-17T22:07:34.761Z,98932.64
2018-10-17T22:10:02.901Z,98925.58
2018-10-17T22:12:31.217Z,98927.53
2018-10-17T22:14:59.599Z,98929.84
2018-10-17T22:17:27.976Z,98923.42
2018-10-17T22:19:56.542Z,98933.98
2018-10-17T22:22:25.072Z,98935.16
2018-10-17T22:24:54.081Z,98934.07
2018-10-17T22:27:22.368Z,98924.86
2018-10-17T22:29:50.680Z,98930.65
2018-10-17T22:32:18.940Z,98928.50
2018-10-17T22:34:47.192Z,98929.84
2018-10-17T22:37:15.334Z,98932.94
2018-10-17T22:39:43.569Z,98938.19
2018-10-17T22:42:12.429Z,98935.81
2018-10-17T22:44:40.744Z,98934.39
2018-10-17T22:47:08.959Z,98933.10
2018-10-17T22:49:37.191Z,98939.77
2018-10-17T22:52:05.364Z,98939.15
2018-10-17T22:54:33.789Z,98933.42
2018-10-17T22:57:01.965Z,98937.78
2018-10-17T22:59:30.266Z,98935.00
2018-10-17T23:01:58.481Z,98936.06
2018-10-17T23:04:26.734Z,98926.37
2018-10-17T23:06:54.878Z,98931.64
2018-10-17T23:09:23.421Z,98930.57
2018-10-17T23:11:51.609Z,98928.16
2018-10-17T23:14:19.859Z,98931.77
2018-10-17T23:16:48.036Z,98924.81
2018-10-17T23:19:16.269Z,98928.69
2018-10-17T23:21:44.773Z,98922.59
2018-10-17T23:24:12.978Z,98925.00
2018-10-17T23:26:41.151Z,98925.98
2018-10-17T23:29:09.347Z,98922.38
2018-10-17T23:31:37.565Z,98929.09
2018-10-17T23:34:05.817Z,98927.19
2018-10-17T23:36:35.101Z,98925.48
2018-10-17T23:39:03.580Z,98927.65
2018-10-17T23:41:31.729Z,98927.41
2018-10-17T23:43:59.973Z,98931.00
2018-10-17T23:46:28.776Z,98926.81
2018-10-17T23:48:56.943Z,98925.50
2018-10-17T23:51:25.100Z,98936.39
2018-10-17T23:53:53.283Z,98932.08
2018-10-17T23:56:21.472Z,98925.87
2018-10-17T23:58:50.137Z,98928.64
